Terminal Aerodrome Forecast
Issued by NWS Melbourne, FL

Home | Current Version | Previous Version | Text Only | Print | Product List | Glossary On
Versions: 1 2 3 4 5 6 7 8 9 10 11 12 13 14 15 16
493
FTUS42 KMLB 232330
TAFVRB
TAF
KVRB 232330Z 2400/2424 20009KT P6SM VCSH FEW025 BKN090 OVC120
      TEMPO 2400/2401 -SHRA BKN050
     FM240900 22004KT P6SM FEW015 SCT060 BKN250
     FM241400 24008KT P6SM BKN025
     FM241800 25010KT P6SM VCSH BKN035 BKN060=

USA.gov is the U.S. government's official web portal to all federal, state and local government web resources and services.